createdAt,value
2023-04-03T00:00:46.515Z,2.53
2023-04-03T00:03:14.269Z,2.30
2023-04-03T00:05:42.305Z,2.55
2023-04-03T00:08:10.597Z,2.03
2023-04-03T00:10:38.932Z,2.17
2023-04-03T00:13:06.945Z,2.00
2023-04-03T00:15:34.453Z,2.45
2023-04-03T00:18:02.589Z,2.15
2023-04-03T00:20:30.066Z,2.30
2023-04-03T00:22:58.308Z,2.25
2023-04-03T00:25:26.070Z,2.10
2023-04-03T00:27:53.546Z,2.10
2023-04-03T00:30:22.081Z,2.20
2023-04-03T00:32:50.747Z,2.33
2023-04-03T00:35:18.489Z,2.33
2023-04-03T00:37:46.018Z,2.20
2023-04-03T00:40:14.470Z,2.05
2023-04-03T00:42:42.285Z,1.98
2023-04-03T00:45:12.654Z,2.00
2023-04-03T00:47:41.157Z,2.50
2023-04-03T00:50:09.016Z,1.98
2023-04-03T00:52:36.572Z,2.30
2023-04-03T00:55:06.949Z,2.00
2023-04-03T01:00:10.412Z,2.10
2023-04-03T01:02:38.393Z,2.17
2023-04-03T01:05:07.238Z,2.22
2023-04-03T01:07:36.222Z,2.28
2023-04-03T01:10:15.172Z,2.03
2023-04-03T01:12:46.782Z,2.17
2023-04-03T01:15:24.030Z,2.20
2023-04-03T01:17:52.936Z,2.08
2023-04-03T01:20:33.196Z,2.05
2023-04-03T01:23:10.067Z,1.87
2023-04-03T01:25:43.088Z,2.40
2023-04-03T01:28:13.206Z,1.95
2023-04-03T01:30:51.337Z,2.00
2023-04-03T01:33:19.292Z,2.17
2023-04-03T01:35:48.042Z,2.20
2023-04-03T01:38:16.041Z,1.87
2023-04-03T01:40:43.572Z,2.10
2023-04-03T01:43:11.667Z,1.83
2023-04-03T01:45:39.142Z,2.20
2023-04-03T01:48:06.762Z,1.90
2023-04-03T01:50:34.815Z,2.12
2023-04-03T01:53:02.375Z,1.92
2023-04-03T01:55:29.820Z,1.80
2023-04-03T01:57:57.684Z,2.05
2023-04-03T02:00:25.201Z,2.12
2023-04-03T02:02:53.115Z,1.90
2023-04-03T02:05:20.560Z,1.87
2023-04-03T02:07:48.023Z,2.03
2023-04-03T02:10:16.130Z,2.10
2023-04-03T02:12:43.656Z,2.00
2023-04-03T02:15:11.213Z,2.00
2023-04-03T02:17:38.990Z,2.03
2023-04-03T02:20:07.002Z,2.25
2023-04-03T02:22:34.528Z,1.60
2023-04-03T02:25:05.880Z,2.12
2023-04-03T02:27:33.318Z,2.08
2023-04-03T02:30:00.805Z,1.85
2023-04-03T02:32:28.835Z,1.80
2023-04-03T02:34:57.395Z,1.80
2023-04-03T02:37:24.930Z,1.65
2023-04-03T02:39:53.028Z,1.80
2023-04-03T02:42:20.871Z,1.90
2023-04-03T02:44:48.405Z,1.90
2023-04-03T02:47:16.137Z,2.00
2023-04-03T02:49:46.043Z,1.73
2023-04-03T02:52:14.326Z,1.98
2023-04-03T02:54:42.303Z,1.95
2023-04-03T02:57:10.247Z,1.70
2023-04-03T02:59:38.217Z,1.70
2023-04-03T03:02:06.236Z,2.00
2023-04-03T03:04:33.688Z,2.08
2023-04-03T03:07:01.316Z,1.70
2023-04-03T03:09:30.481Z,2.03
2023-04-03T03:11:58.124Z,1.90
2023-04-03T03:14:25.566Z,1.67
2023-04-03T03:16:53.313Z,1.77
2023-04-03T03:19:20.743Z,1.77
2023-04-03T03:21:48.328Z,1.87
2023-04-03T03:24:16.930Z,1.83
2023-04-03T03:26:44.359Z,1.95
2023-04-03T03:29:12.601Z,1.92
2023-04-03T03:31:40.847Z,1.70
2023-04-03T03:34:08.472Z,1.70
2023-04-03T03:36:36.397Z,1.92
2023-04-03T03:39:04.528Z,1.67
2023-04-03T03:41:32.151Z,1.52
2023-04-03T03:43:59.786Z,2.12
2023-04-03T03:46:28.701Z,2.00
2023-04-03T03:48:56.267Z,1.90
2023-04-03T03:51:24.111Z,1.90
2023-04-03T03:53:52.434Z,1.87
2023-04-03T03:56:20.099Z,1.80
2023-04-03T03:58:47.698Z,1.90
2023-04-03T04:01:16.216Z,1.87
2023-04-03T04:03:44.402Z,2.00
2023-04-03T04:06:12.344Z,1.87
2023-04-03T04:08:39.797Z,2.22
2023-04-03T04:11:07.919Z,1.95
2023-04-03T04:13:35.411Z,2.62
2023-04-03T04:16:03.089Z,1.75
2023-04-03T04:18:31.232Z,2.00
2023-04-03T04:20:58.941Z,1.77
2023-04-03T04:23:26.467Z,1.80
2023-04-03T04:25:54.500Z,1.87
2023-04-03T04:28:22.682Z,1.73
2023-04-03T04:30:51.260Z,1.85
2023-04-03T04:33:19.351Z,1.90
2023-04-03T04:35:48.671Z,1.60
2023-04-03T04:38:17.299Z,1.80
2023-04-03T04:40:45.071Z,1.60
2023-04-03T04:43:15.408Z,1.80
2023-04-03T04:48:11.181Z,1.62
2023-04-03T04:50:39.138Z,1.73
2023-04-03T04:53:25.437Z,1.50
2023-04-03T04:55:53.776Z,2.00
2023-04-03T04:58:21.661Z,1.70
2023-04-03T05:00:49.241Z,1.67
2023-04-03T05:03:17.418Z,1.77
2023-04-03T05:05:46.140Z,1.70
2023-04-03T05:08:14.181Z,1.62
2023-04-03T05:10:43.174Z,1.80
2023-04-03T05:13:11.458Z,2.23
2023-04-03T05:15:39.612Z,1.70
2023-04-03T05:18:07.758Z,1.33
2023-04-03T05:20:35.842Z,1.77
2023-04-03T05:23:03.479Z,1.75
2023-04-03T05:25:32.054Z,1.80
2023-04-03T05:27:59.959Z,1.87
2023-04-03T05:30:27.833Z,1.62
2023-04-03T05:32:55.790Z,1.67
2023-04-03T05:35:23.864Z,1.87
2023-04-03T05:37:51.887Z,1.30
2023-04-03T05:40:19.854Z,1.70
2023-04-03T05:42:47.741Z,1.40
2023-04-03T05:45:15.637Z,1.52
2023-04-03T05:47:43.445Z,1.80
2023-04-03T05:50:11.342Z,1.37
2023-04-03T05:52:39.867Z,1.60
2023-04-03T05:55:08.586Z,1.60
2023-04-03T05:57:36.203Z,1.40
2023-04-03T06:00:09.250Z,1.70
2023-04-03T06:02:42.805Z,1.77
2023-04-03T06:05:13.454Z,1.50
2023-04-03T06:10:12.837Z,1.58
2023-04-03T06:12:40.293Z,1.60
2023-04-03T06:15:09.406Z,1.70
2023-04-03T06:17:38.388Z,1.25
2023-04-03T06:20:07.210Z,1.58
2023-04-03T06:22:34.948Z,1.45
2023-04-03T06:25:02.781Z,1.67
2023-04-03T06:27:30.338Z,1.67
2023-04-03T06:29:57.822Z,1.48
2023-04-03T06:32:26.103Z,1.48
2023-04-03T06:34:54.432Z,1.70
2023-04-03T06:37:22.826Z,1.60
2023-04-03T06:39:50.583Z,1.62
2023-04-03T06:42:18.048Z,1.40
2023-04-03T06:44:46.084Z,1.83
2023-04-03T06:47:14.642Z,1.33
2023-04-03T06:49:42.424Z,1.30
2023-04-03T06:52:10.011Z,1.40
2023-04-03T06:54:37.747Z,1.70
2023-04-03T06:57:05.266Z,1.67
2023-04-03T06:59:32.842Z,1.55
2023-04-03T07:02:00.931Z,1.83
2023-04-03T07:04:28.449Z,1.48
2023-04-03T07:06:56.068Z,1.60
2023-04-03T07:09:24.017Z,1.60
2023-04-03T07:11:51.480Z,2.15
2023-04-03T07:14:19.247Z,1.95
2023-04-03T07:16:46.955Z,1.80
2023-04-03T07:19:14.473Z,2.08
2023-04-03T07:21:42.969Z,2.08
2023-04-03T07:24:13.105Z,1.42
2023-04-03T07:26:44.010Z,1.73
2023-04-03T07:29:13.329Z,1.90
2023-04-03T07:31:42.592Z,1.70
2023-04-03T07:34:10.162Z,1.65
2023-04-03T07:36:38.527Z,1.73
2023-04-03T07:39:07.310Z,1.60
2023-04-03T07:41:34.989Z,1.50
2023-04-03T07:44:03.606Z,1.50
2023-04-03T07:46:31.129Z,1.50
2023-04-03T07:48:58.932Z,1.77
2023-04-03T07:51:27.794Z,1.87
2023-04-03T07:53:55.356Z,1.75
2023-04-03T07:56:23.831Z,1.50
2023-04-03T07:58:51.739Z,1.45
2023-04-03T08:01:19.194Z,1.37
2023-04-03T08:03:46.996Z,1.67
2023-04-03T08:06:16.945Z,1.80
2023-04-03T08:08:46.860Z,1.42
2023-04-03T08:11:14.664Z,1.60
2023-04-03T08:13:43.902Z,1.48
2023-04-03T08:16:13.514Z,1.45
2023-04-03T08:18:41.531Z,1.60
2023-04-03T08:21:10.115Z,1.60
2023-04-03T08:23:38.063Z,1.52
2023-04-03T08:26:13.702Z,1.67
2023-04-03T08:28:41.606Z,1.52
2023-04-03T08:31:12.777Z,1.35
2023-04-03T08:33:40.655Z,1.50
2023-04-03T08:36:09.288Z,1.42
2023-04-03T08:38:38.277Z,1.35
2023-04-03T08:41:12.540Z,1.55
2023-04-03T08:44:05.144Z,1.20
2023-04-03T08:46:53.936Z,1.50
2023-04-03T08:49:27.464Z,1.62
2023-04-03T08:51:57.881Z,1.70
2023-04-03T08:54:31.615Z,1.50
2023-04-03T08:57:01.154Z,2.35
2023-04-03T08:59:34.955Z,1.30
2023-04-03T09:02:06.382Z,1.50
2023-04-03T09:04:34.777Z,1.55
2023-04-03T09:07:09.956Z,1.70
2023-04-03T09:09:44.809Z,1.90
2023-04-03T09:12:20.903Z,2.08
2023-04-03T09:15:04.255Z,1.37
2023-04-03T09:17:35.417Z,1.85
2023-04-03T09:20:20.360Z,1.70
2023-04-03T09:22:52.155Z,1.42
2023-04-03T09:25:28.695Z,1.95
2023-04-03T09:27:57.032Z,1.50
2023-04-03T09:30:25.842Z,1.90
2023-04-03T09:32:54.716Z,2.08
2023-04-03T09:35:44.931Z,1.37
2023-04-03T09:38:18.550Z,1.33
2023-04-03T09:40:50.674Z,2.05
2023-04-03T09:43:18.394Z,1.98
2023-04-03T09:45:46.726Z,1.80
2023-04-03T09:49:08.885Z,2.05
2023-04-03T09:51:50.495Z,1.95
2023-04-03T09:55:08.656Z,1.62
2023-04-03T09:58:03.564Z,1.85
2023-04-03T10:00:59.584Z,2.15
2023-04-03T10:03:37.560Z,2.40
2023-04-03T10:06:05.678Z,1.75
2023-04-03T10:08:34.571Z,1.45
2023-04-03T10:11:11.046Z,1.77
2023-04-03T10:13:51.362Z,1.77
2023-04-03T10:16:21.678Z,2.00
2023-04-03T10:19:00.337Z,1.60
2023-04-03T10:21:32.153Z,1.62
2023-04-03T10:24:16.153Z,1.67
2023-04-03T10:26:52.267Z,2.08
2023-04-03T10:29:48.145Z,1.40
2023-04-03T10:32:24.727Z,1.85
2023-04-03T10:35:25.144Z,1.83
2023-04-03T10:38:03.090Z,1.70
2023-04-03T10:40:35.378Z,1.58
2023-04-03T10:43:34.519Z,1.77
2023-04-03T10:46:08.498Z,1.55
2023-04-03T10:48:56.187Z,2.03
2023-04-03T10:52:10.242Z,1.52
2023-04-03T10:55:29.775Z,1.30
2023-04-03T10:58:41.429Z,1.50
2023-04-03T11:01:33.788Z,2.10
2023-04-03T11:04:02.067Z,1.62
2023-04-03T11:07:01.190Z,1.40
2023-04-03T11:09:38.948Z,1.62
2023-04-03T11:12:20.156Z,1.70
2023-04-03T11:14:48.269Z,2.00
2023-04-03T11:17:24.972Z,1.77
2023-04-03T11:19:55.682Z,1.70
2023-04-03T11:22:42.893Z,1.73
2023-04-03T11:25:16.374Z,1.48
2023-04-03T11:27:47.064Z,1.50
2023-04-03T11:30:19.597Z,1.85
2023-04-03T11:33:13.904Z,1.87
2023-04-03T11:35:46.960Z,2.20
2023-04-03T11:38:37.356Z,1.62
2023-04-03T11:41:06.126Z,1.73
2023-04-03T11:43:34.494Z,1.70
2023-04-03T11:46:05.641Z,1.77
2023-04-03T11:48:36.399Z,1.60
2023-04-03T11:51:21.691Z,2.00
2023-04-03T11:53:49.678Z,1.33
2023-04-03T11:56:29.076Z,1.50
2023-04-03T11:59:19.415Z,1.45
2023-04-03T12:01:51.129Z,1.45
2023-04-03T12:04:20.436Z,1.58
2023-04-03T12:06:48.109Z,1.40
2023-04-03T12:09:29.067Z,1.90
2023-04-03T12:11:57.784Z,1.90
2023-04-03T12:14:28.464Z,2.15
2023-04-03T12:16:58.682Z,2.00
2023-04-03T12:19:44.460Z,1.87
2023-04-03T12:22:14.254Z,2.00
2023-04-03T12:24:43.786Z,2.12
2023-04-03T12:27:49.814Z,1.90
2023-04-03T12:30:24.014Z,1.80
2023-04-03T12:33:19.968Z,1.62
2023-04-03T12:35:56.971Z,2.17
2023-04-03T12:39:09.709Z,1.80
2023-04-03T12:42:21.673Z,2.30
2023-04-03T12:45:11.618Z,2.30
2023-04-03T12:47:40.977Z,2.67
2023-04-03T12:50:25.032Z,2.75
2023-04-03T12:53:14.229Z,3.28
2023-04-03T12:55:41.809Z,3.47
2023-04-03T12:58:23.598Z,3.60
2023-04-03T13:01:24.512Z,3.25
2023-04-03T13:03:56.927Z,3.40
2023-04-03T13:06:28.457Z,3.40
2023-04-03T13:09:05.225Z,3.15
2023-04-03T13:11:36.031Z,3.10
2023-04-03T13:14:06.884Z,3.35
2023-04-03T13:16:34.809Z,2.92
2023-04-03T13:19:02.496Z,3.40
2023-04-03T13:21:31.911Z,3.55
2023-04-03T13:24:14.057Z,2.92
2023-04-03T13:26:42.925Z,3.40
2023-04-03T13:29:30.020Z,3.03
2023-04-03T13:31:59.195Z,2.87
2023-04-03T13:34:28.808Z,3.75
2023-04-03T13:36:58.185Z,3.17
2023-04-03T13:39:26.991Z,3.47
2023-04-03T13:41:56.171Z,3.00
2023-04-03T13:44:23.457Z,3.27
2023-04-03T13:46:52.371Z,2.83
2023-04-03T13:49:32.093Z,3.33
2023-04-03T13:52:07.143Z,2.85
2023-04-03T13:54:40.344Z,3.15
2023-04-03T13:57:16.034Z,2.72
2023-04-03T13:59:44.204Z,2.95
2023-04-03T14:02:15.235Z,3.00
2023-04-03T14:04:46.063Z,2.78
2023-04-03T14:07:13.880Z,2.80
2023-04-03T14:09:41.528Z,3.03
2023-04-03T14:12:32.915Z,3.00
2023-04-03T14:15:12.141Z,3.15
2023-04-03T14:17:39.871Z,3.08
2023-04-03T14:20:08.092Z,2.70
2023-04-03T14:22:35.847Z,2.75
2023-04-03T14:25:04.184Z,3.03
2023-04-03T14:27:36.238Z,2.90
2023-04-03T14:30:05.105Z,2.95
2023-04-03T14:32:32.717Z,2.90
2023-04-03T14:35:00.528Z,2.72
2023-04-03T14:37:30.281Z,2.95
2023-04-03T14:39:58.396Z,3.12
2023-04-03T14:42:29.090Z,2.62
2023-04-03T14:44:56.810Z,2.70
2023-04-03T14:47:31.180Z,3.10
2023-04-03T14:50:03.580Z,2.47
2023-04-03T14:52:32.789Z,2.78
2023-04-03T14:55:01.440Z,2.50
2023-04-03T14:57:29.545Z,2.85
2023-04-03T14:59:57.353Z,2.95
2023-04-03T15:02:32.081Z,2.95
2023-04-03T15:05:00.279Z,2.90
2023-04-03T15:07:29.262Z,2.80
2023-04-03T15:09:59.440Z,2.62
2023-04-03T15:15:01.062Z,2.10
2023-04-03T15:17:30.448Z,2.30
2023-04-03T15:19:58.213Z,2.33
2023-04-03T15:22:25.713Z,2.25
2023-04-03T15:24:53.225Z,2.67
2023-04-03T15:27:20.946Z,2.15
2023-04-03T15:29:48.476Z,2.17
2023-04-03T15:32:15.986Z,2.10
2023-04-03T15:34:43.748Z,2.45
2023-04-03T15:37:11.263Z,1.90
2023-04-03T15:39:38.689Z,2.12
2023-04-03T15:42:09.316Z,2.17
2023-04-03T15:44:36.780Z,2.08
2023-04-03T15:47:04.309Z,2.45
2023-04-03T15:49:33.642Z,2.50
2023-04-03T15:52:01.279Z,2.50
2023-04-03T15:54:30.538Z,2.15
2023-04-03T15:56:58.372Z,2.33
2023-04-03T15:59:25.939Z,2.25
2023-04-03T16:01:53.480Z,2.72
2023-04-03T16:04:21.916Z,2.30
2023-04-03T16:06:50.061Z,2.65
2023-04-03T16:09:17.605Z,2.12
2023-04-03T16:11:45.392Z,2.20
2023-04-03T16:14:12.977Z,2.25
2023-04-03T16:16:40.575Z,2.12
2023-04-03T16:19:08.329Z,1.83
2023-04-03T16:21:35.884Z,2.10
2023-04-03T16:24:03.656Z,2.00
2023-04-03T16:26:31.465Z,2.12
2023-04-03T16:28:59.030Z,2.08
2023-04-03T16:31:26.573Z,2.37
2023-04-03T16:33:54.326Z,2.17
2023-04-03T16:36:21.896Z,2.15
2023-04-03T16:38:49.514Z,2.10
2023-04-03T16:41:18.116Z,2.12
2023-04-03T16:43:45.758Z,2.10
2023-04-03T16:46:16.158Z,2.30
2023-04-03T16:48:44.000Z,1.73
2023-04-03T16:51:14.198Z,1.87
2023-04-03T16:53:42.913Z,1.73
2023-04-03T16:56:11.050Z,1.62
2023-04-03T16:58:38.843Z,2.15
2023-04-03T17:01:14.337Z,1.90
2023-04-03T17:03:42.444Z,2.12
2023-04-03T17:06:15.672Z,1.77
2023-04-03T17:08:44.328Z,1.73
2023-04-03T17:11:11.914Z,1.73
2023-04-03T17:13:39.568Z,1.73
2023-04-03T17:16:09.653Z,2.08
2023-04-03T17:18:37.804Z,1.77
2023-04-03T17:21:06.461Z,1.80
2023-04-03T17:23:36.959Z,1.80
2023-04-03T17:26:04.743Z,2.03
2023-04-03T17:28:32.417Z,1.83
2023-04-03T17:31:01.230Z,1.87
2023-04-03T17:33:31.193Z,1.90
2023-04-03T17:38:27.264Z,1.80
2023-04-03T17:40:58.821Z,2.03
2023-04-03T17:43:29.410Z,2.00
2023-04-03T17:46:05.101Z,2.20
2023-04-03T17:48:33.468Z,1.92
2023-04-03T17:51:11.757Z,1.70
2023-04-03T17:53:41.316Z,1.85
2023-04-03T17:56:10.474Z,1.80
2023-04-03T17:58:38.470Z,1.90
2023-04-03T18:01:14.719Z,1.65
2023-04-03T18:03:43.801Z,1.80
2023-04-03T18:06:20.920Z,1.62
2023-04-03T18:08:51.670Z,1.85
2023-04-03T18:13:51.846Z,2.17
2023-04-03T18:16:20.063Z,1.80
2023-04-03T18:18:50.700Z,1.90
2023-04-03T18:21:23.542Z,2.10
2023-04-03T18:23:55.824Z,1.98
2023-04-03T18:26:27.274Z,1.77
2023-04-03T18:28:59.397Z,1.83
2023-04-03T18:31:28.867Z,2.10
2023-04-03T18:33:59.371Z,1.75
2023-04-03T18:36:29.845Z,1.80
2023-04-03T18:38:58.602Z,1.70
2023-04-03T18:41:29.223Z,1.70
2023-04-03T18:43:58.622Z,1.80
2023-04-03T18:46:26.992Z,1.80
2023-04-03T18:48:55.599Z,1.92
2023-04-03T18:51:27.386Z,1.60
2023-04-03T18:53:55.994Z,1.92
2023-04-03T18:56:27.738Z,2.10
2023-04-03T18:58:57.264Z,2.03
2023-04-03T19:01:26.614Z,2.00
2023-04-03T19:03:55.513Z,2.28
2023-04-03T19:06:25.027Z,1.80
2023-04-03T19:08:53.827Z,2.03
2023-04-03T19:11:23.519Z,1.70
2023-04-03T19:14:10.434Z,1.80
2023-04-03T19:16:41.588Z,2.03
2023-04-03T19:19:10.001Z,2.35
2023-04-03T19:21:41.783Z,1.73
2023-04-03T19:24:11.450Z,1.85
2023-04-03T19:26:41.359Z,2.03
2023-04-03T19:29:10.198Z,1.83
2023-04-03T19:31:41.054Z,1.87
2023-04-03T19:34:09.643Z,2.40
2023-04-03T19:36:40.223Z,1.73
2023-04-03T19:39:13.368Z,1.92
2023-04-03T19:41:45.379Z,1.80
2023-04-03T19:44:15.162Z,2.00
2023-04-03T19:46:50.973Z,2.08
2023-04-03T19:49:21.031Z,1.42
2023-04-03T19:51:49.466Z,1.58
2023-04-03T19:54:18.919Z,1.80
2023-04-03T19:56:47.895Z,1.75
2023-04-03T19:59:17.014Z,1.83
2023-04-03T20:01:46.582Z,1.90
2023-04-03T20:04:21.570Z,1.98
2023-04-03T20:06:51.092Z,1.85
2023-04-03T20:09:21.779Z,1.62
2023-04-03T20:11:50.950Z,1.73
2023-04-03T20:14:20.127Z,1.67
2023-04-03T20:16:47.838Z,2.05
2023-04-03T20:19:16.854Z,1.60
2023-04-03T20:21:48.189Z,1.73
2023-04-03T20:24:17.248Z,1.75
2023-04-03T20:26:47.210Z,1.50
2023-04-03T20:29:16.616Z,1.83
2023-04-03T20:31:44.399Z,1.77
2023-04-03T20:34:13.553Z,1.73
2023-04-03T20:36:41.191Z,1.60
2023-04-03T20:39:08.742Z,1.85
2023-04-03T20:41:37.923Z,1.67
2023-04-03T20:44:05.861Z,1.62
2023-04-03T20:46:49.194Z,2.10
2023-04-03T20:49:21.192Z,1.80
2023-04-03T20:51:51.215Z,1.50
2023-04-03T20:54:19.187Z,1.73
2023-04-03T20:56:49.729Z,1.42
2023-04-03T20:59:17.721Z,1.60
2023-04-03T21:01:46.920Z,1.50
2023-04-03T21:04:26.603Z,1.42
2023-04-03T21:07:31.792Z,1.65
2023-04-03T21:10:37.436Z,1.52
2023-04-03T21:13:42.795Z,1.40
2023-04-03T21:16:10.395Z,1.45
2023-04-03T21:19:00.890Z,1.80
2023-04-03T21:21:28.881Z,1.25
2023-04-03T21:23:56.430Z,1.60
2023-04-03T21:26:26.028Z,1.40
2023-04-03T21:28:53.856Z,1.67
2023-04-03T21:31:21.982Z,1.80
2023-04-03T21:33:50.168Z,1.70
2023-04-03T21:36:17.961Z,1.50
2023-04-03T21:38:46.040Z,1.25
2023-04-03T21:41:13.528Z,1.65
2023-04-03T21:43:41.470Z,1.55
2023-04-03T21:46:09.032Z,1.45
2023-04-03T21:48:36.805Z,1.30
2023-04-03T21:51:04.991Z,1.50
2023-04-03T21:53:32.458Z,1.62
2023-04-03T21:56:03.175Z,1.62
2023-04-03T21:58:32.081Z,1.30
2023-04-03T22:01:13.385Z,1.50
2023-04-03T22:03:41.827Z,1.45
2023-04-03T22:06:09.706Z,1.40
2023-04-03T22:08:37.372Z,1.27
2023-04-03T22:11:06.688Z,1.40
2023-04-03T22:13:34.396Z,1.30
2023-04-03T22:16:02.536Z,1.60
2023-04-03T22:18:30.486Z,1.60
2023-04-03T22:20:58.073Z,1.50
2023-04-03T22:23:26.170Z,1.45
2023-04-03T22:26:07.455Z,1.55
2023-04-03T22:28:37.441Z,1.62
2023-04-03T22:31:07.639Z,1.50
2023-04-03T22:33:38.298Z,1.70
2023-04-03T22:36:06.713Z,1.30
2023-04-03T22:38:35.067Z,1.10
2023-04-03T22:41:03.868Z,1.37
2023-04-03T22:43:32.657Z,1.20
2023-04-03T22:46:01.224Z,1.50
2023-04-03T22:48:28.772Z,1.48
2023-04-03T22:50:56.548Z,1.45
2023-04-03T22:53:24.068Z,1.60
2023-04-03T22:55:57.662Z,1.35
2023-04-03T22:58:28.913Z,1.30
2023-04-03T23:01:05.031Z,1.45
2023-04-03T23:03:33.495Z,1.40
2023-04-03T23:06:04.117Z,1.30
2023-04-03T23:08:32.627Z,1.00
2023-04-03T23:11:00.654Z,1.10
2023-04-03T23:13:28.162Z,1.58
2023-04-03T23:15:56.492Z,1.42
2023-04-03T23:18:24.717Z,1.20
2023-04-03T23:20:52.268Z,1.15
2023-04-03T23:23:19.851Z,1.25
2023-04-03T23:25:52.357Z,1.30
2023-04-03T23:28:38.272Z,1.50
2023-04-03T23:31:10.298Z,1.40
2023-04-03T23:33:43.827Z,1.50
2023-04-03T23:36:13.175Z,1.40
2023-04-03T23:38:41.193Z,1.20
2023-04-03T23:41:08.665Z,1.30
2023-04-03T23:43:37.095Z,1.30
2023-04-03T23:46:04.548Z,1.30
2023-04-03T23:48:32.002Z,1.37
2023-04-03T23:50:59.746Z,1.17
2023-04-03T23:53:27.284Z,1.12
2023-04-03T23:55:54.809Z,1.17
2023-04-03T23:58:22.741Z,1.40
